EZY9428 LPFR-EGGP
Flight info
| Callsign | EZY9428 |
|---|---|
| Flight time | N/A |
| Altitude | 36000 |
| Route | ELVAR DCT BABOV DCT BARDI DCT ZMR DCT NUBLO DCT RONSI DCT DELOG DCT NOZHU/N0453F370 DCT SHIRI DCT TOJAQ DCT EPACE DCT ACCOP DCT MOCQO/N0432F240 P16 PEPZE |
| Aircraft | A320/M-SDE3FGHIRWY/LB1 |
Departure
| Time | 2026-04-27 14:27 |
|---|---|
| Airport | Faro - Gago Coutinho International Airport (LPFR) |
Arrival
| Time | N/A |
|---|---|
| Airport | Liverpool John Lennon Airport (EGGP) |
| Time | Latitude | Longitude | Altitude | Speed | Heading |
|---|---|---|---|---|---|
| 2026-04-27 13:55 | 37.01881 | -7.97152 | 20 ft | 0 kts | 11° |
| 2026-04-27 14:17 | 37.01862 | -7.97156 | 47 ft | 4 kts | 4° |
| 2026-04-27 14:18 | 37.01835 | -7.97155 | 21 ft | 4 kts | 338° |
| 2026-04-27 14:18 | 37.01819 | -7.97138 | 22 ft | 2 kts | 281° |
| 2026-04-27 14:18 | 37.01818 | -7.97135 | 22 ft | 0 kts | 279° |
| 2026-04-27 14:21 | 37.01818 | -7.97136 | 22 ft | 1 kts | 279° |
| 2026-04-27 14:22 | 37.01826 | -7.97191 | 21 ft | 12 kts | 280° |
| 2026-04-27 14:22 | 37.01839 | -7.97289 | 20 ft | 11 kts | 279° |
| 2026-04-27 14:22 | 37.01836 | -7.97373 | 21 ft | 9 kts | 233° |
| 2026-04-27 14:22 | 37.01792 | -7.97420 | 21 ft | 7 kts | 221° |
| 2026-04-27 14:23 | 37.01759 | -7.97461 | 20 ft | 6 kts | 239° |
| 2026-04-27 14:23 | 37.01761 | -7.97526 | 20 ft | 10 kts | 279° |
| 2026-04-27 14:23 | 37.01776 | -7.97632 | 20 ft | 15 kts | 280° |
| 2026-04-27 14:23 | 37.01796 | -7.97776 | 22 ft | 18 kts | 279° |
| 2026-04-27 14:24 | 37.01817 | -7.97924 | 25 ft | 16 kts | 280° |
| 2026-04-27 14:24 | 37.01835 | -7.98054 | 24 ft | 14 kts | 280° |
| 2026-04-27 14:24 | 37.01850 | -7.98155 | 27 ft | 11 kts | 281° |
| 2026-04-27 14:24 | 37.01865 | -7.98255 | 28 ft | 11 kts | 280° |
| 2026-04-27 14:25 | 37.01883 | -7.98383 | 26 ft | 21 kts | 280° |
| 2026-04-27 14:25 | 37.01893 | -7.98535 | 25 ft | 11 kts | 254° |
| 2026-04-27 14:25 | 37.01828 | -7.98575 | 25 ft | 12 kts | 191° |
| 2026-04-27 14:25 | 37.01742 | -7.98595 | 30 ft | 11 kts | 187° |
| 2026-04-27 14:26 | 37.01717 | -7.98529 | 27 ft | 12 kts | 101° |
| 2026-04-27 14:26 | 37.01665 | -7.98168 | 25 ft | 78 kts | 99° |
| 2026-04-27 14:26 | 37.01536 | -7.97256 | 20 ft | 136 kts | 99° |
| 2026-04-27 14:26 | 37.01361 | -7.95954 | 355 ft | 154 kts | 101° |
| 2026-04-27 14:27 | 37.01165 | -7.94645 | 1047 ft | 152 kts | 102° |
| 2026-04-27 14:27 | 37.00950 | -7.93293 | 1462 ft | 169 kts | 101° |
| 2026-04-27 14:27 | 37.00733 | -7.91779 | 1830 ft | 186 kts | 100° |
| 2026-04-27 14:27 | 37.00492 | -7.90090 | 2110 ft | 208 kts | 100° |
| 2026-04-27 14:28 | 37.00219 | -7.88223 | 2539 ft | 224 kts | 99° |
| 2026-04-27 14:28 | 36.99934 | -7.86308 | 3401 ft | 223 kts | 98° |
| 2026-04-27 14:28 | 36.99652 | -7.84424 | 4239 ft | 223 kts | 98° |
| 2026-04-27 14:28 | 36.99462 | -7.82495 | 5033 ft | 221 kts | 84° |